sensor_id;sensor_type;location;lat;lon;timestamp;P1;durP1;ratioP1;P2;durP2;ratioP2
47287;SDS011;33020;53.008;13.558;2022-11-15T00:00:55;59.73;;;29.47;;
47287;SDS011;33020;53.008;13.558;2022-11-15T00:03:23;59.47;;;29.50;;
47287;SDS011;33020;53.008;13.558;2022-11-15T00:05:50;64.53;;;31.33;;
47287;SDS011;33020;53.008;13.558;2022-11-15T00:08:18;60.00;;;29.13;;
47287;SDS011;33020;53.008;13.558;2022-11-15T00:10:58;67.43;;;31.83;;
47287;SDS011;33020;53.008;13.558;2022-11-15T00:13:28;63.90;;;33.13;;
47287;SDS011;33020;53.008;13.558;2022-11-15T00:15:59;62.37;;;30.13;;
47287;SDS011;33020;53.008;13.558;2022-11-15T00:18:27;59.50;;;30.60;;
47287;SDS011;33020;53.008;13.558;2022-11-15T00:20:55;63.07;;;32.97;;
47287;SDS011;33020;53.008;13.558;2022-11-15T00:23:23;66.10;;;30.50;;
47287;SDS011;33020;53.008;13.558;2022-11-15T00:25:56;63.97;;;32.57;;
47287;SDS011;33020;53.008;13.558;2022-11-15T00:28:24;60.95;;;30.95;;
47287;SDS011;33020;53.008;13.558;2022-11-15T00:30:51;62.67;;;31.27;;
47287;SDS011;33020;53.008;13.558;2022-11-15T00:33:18;60.27;;;30.17;;
47287;SDS011;33020;53.008;13.558;2022-11-15T00:35:45;66.93;;;31.00;;
47287;SDS011;33020;53.008;13.558;2022-11-15T00:38:11;57.87;;;29.50;;
47287;SDS011;33020;53.008;13.558;2022-11-15T00:40:38;62.43;;;32.83;;
47287;SDS011;33020;53.008;13.558;2022-11-15T00:43:04;53.43;;;28.57;;
47287;SDS011;33020;53.008;13.558;2022-11-15T00:45:31;63.40;;;32.23;;
47287;SDS011;33020;53.008;13.558;2022-11-15T00:47:59;60.13;;;30.67;;
47287;SDS011;33020;53.008;13.558;2022-11-15T00:50:26;63.17;;;31.47;;
47287;SDS011;33020;53.008;13.558;2022-11-15T00:52:52;59.27;;;29.43;;
47287;SDS011;33020;53.008;13.558;2022-11-15T00:55:19;64.40;;;30.50;;
47287;SDS011;33020;53.008;13.558;2022-11-15T00:57:46;64.80;;;32.20;;
47287;SDS011;33020;53.008;13.558;2022-11-15T01:00:13;58.20;;;30.77;;
47287;SDS011;33020;53.008;13.558;2022-11-15T01:02:39;63.10;;;31.23;;
47287;SDS011;33020;53.008;13.558;2022-11-15T01:05:07;64.40;;;30.93;;
47287;SDS011;33020;53.008;13.558;2022-11-15T01:07:34;60.30;;;29.97;;
47287;SDS011;33020;53.008;13.558;2022-11-15T01:10:00;63.73;;;31.83;;
47287;SDS011;33020;53.008;13.558;2022-11-15T01:12:27;69.03;;;30.80;;
47287;SDS011;33020;53.008;13.558;2022-11-15T01:14:54;66.27;;;32.57;;
47287;SDS011;33020;53.008;13.558;2022-11-15T01:17:20;66.27;;;31.30;;
47287;SDS011;33020;53.008;13.558;2022-11-15T01:19:47;63.17;;;31.27;;
47287;SDS011;33020;53.008;13.558;2022-11-15T01:22:14;60.47;;;30.00;;
47287;SDS011;33020;53.008;13.558;2022-11-15T01:24:40;63.87;;;30.77;;
47287;SDS011;33020;53.008;13.558;2022-11-15T01:27:07;68.07;;;32.57;;
47287;SDS011;33020;53.008;13.558;2022-11-15T01:29:34;56.93;;;28.63;;
47287;SDS011;33020;53.008;13.558;2022-11-15T01:32:01;60.90;;;29.20;;
47287;SDS011;33020;53.008;13.558;2022-11-15T01:34:28;61.23;;;32.10;;
47287;SDS011;33020;53.008;13.558;2022-11-15T01:36:54;63.57;;;30.93;;
47287;SDS011;33020;53.008;13.558;2022-11-15T01:39:21;63.23;;;33.30;;
47287;SDS011;33020;53.008;13.558;2022-11-15T01:41:48;60.60;;;30.67;;
47287;SDS011;33020;53.008;13.558;2022-11-15T01:47:02;63.77;;;32.33;;
47287;SDS011;33020;53.008;13.558;2022-11-15T01:49:30;59.10;;;32.00;;
47287;SDS011;33020;53.008;13.558;2022-11-15T01:51:59;61.30;;;30.77;;
47287;SDS011;33020;53.008;13.558;2022-11-15T01:54:27;58.83;;;29.57;;
47287;SDS011;33020;53.008;13.558;2022-11-15T01:57:04;58.30;;;27.40;;
47287;SDS011;33020;53.008;13.558;2022-11-15T01:59:33;56.97;;;29.10;;
47287;SDS011;33020;53.008;13.558;2022-11-15T02:02:00;58.67;;;30.20;;
47287;SDS011;33020;53.008;13.558;2022-11-15T02:05:00;55.73;;;30.30;;
47287;SDS011;33020;53.008;13.558;2022-11-15T02:07:20;61.30;;;29.70;;
47287;SDS011;33020;53.008;13.558;2022-11-15T02:09:48;60.73;;;29.13;;
47287;SDS011;33020;53.008;13.558;2022-11-15T02:12:16;60.73;;;29.40;;
47287;SDS011;33020;53.008;13.558;2022-11-15T02:14:46;59.83;;;31.23;;
47287;SDS011;33020;53.008;13.558;2022-11-15T02:17:19;61.50;;;30.97;;
47287;SDS011;33020;53.008;13.558;2022-11-15T02:23:00;59.50;;;29.58;;
47287;SDS011;33020;53.008;13.558;2022-11-15T02:33:53;60.33;;;29.77;;
47287;SDS011;33020;53.008;13.558;2022-11-15T02:39:21;61.63;;;31.97;;
47287;SDS011;33020;53.008;13.558;2022-11-15T02:41:56;58.63;;;29.23;;
47287;SDS011;33020;53.008;13.558;2022-11-15T02:44:52;59.40;;;29.47;;
47287;SDS011;33020;53.008;13.558;2022-11-15T02:47:19;56.23;;;29.53;;
47287;SDS011;33020;53.008;13.558;2022-11-15T02:49:48;60.30;;;29.83;;
47287;SDS011;33020;53.008;13.558;2022-11-15T02:52:16;57.03;;;29.50;;
47287;SDS011;33020;53.008;13.558;2022-11-15T02:54:52;59.97;;;30.70;;
47287;SDS011;33020;53.008;13.558;2022-11-15T03:00:09;56.90;;;29.07;;
47287;SDS011;33020;53.008;13.558;2022-11-15T03:02:42;58.87;;;27.93;;
47287;SDS011;33020;53.008;13.558;2022-11-15T03:08:17;52.07;;;27.53;;
47287;SDS011;33020;53.008;13.558;2022-11-15T03:10:58;53.50;;;28.50;;
47287;SDS011;33020;53.008;13.558;2022-11-15T03:16:04;52.80;;;28.07;;
47287;SDS011;33020;53.008;13.558;2022-11-15T03:18:45;60.53;;;30.83;;
47287;SDS011;33020;53.008;13.558;2022-11-15T03:21:16;54.43;;;27.17;;
47287;SDS011;33020;53.008;13.558;2022-11-15T03:23:45;53.00;;;28.33;;
47287;SDS011;33020;53.008;13.558;2022-11-15T03:26:14;55.90;;;27.97;;
47287;SDS011;33020;53.008;13.558;2022-11-15T03:28:51;51.27;;;27.40;;
47287;SDS011;33020;53.008;13.558;2022-11-15T03:31:20;55.53;;;29.23;;
47287;SDS011;33020;53.008;13.558;2022-11-15T03:34:27;50.57;;;26.63;;
47287;SDS011;33020;53.008;13.558;2022-11-15T03:36:58;53.38;;;26.75;;
47287;SDS011;33020;53.008;13.558;2022-11-15T03:39:24;51.40;;;26.83;;
47287;SDS011;33020;53.008;13.558;2022-11-15T03:41:57;47.97;;;24.93;;
47287;SDS011;33020;53.008;13.558;2022-11-15T03:47:27;53.33;;;27.40;;
47287;SDS011;33020;53.008;13.558;2022-11-15T03:50:16;49.83;;;27.97;;
47287;SDS011;33020;53.008;13.558;2022-11-15T03:52:47;46.37;;;24.67;;
47287;SDS011;33020;53.008;13.558;2022-11-15T03:55:18;51.97;;;26.23;;
47287;SDS011;33020;53.008;13.558;2022-11-15T03:57:46;45.50;;;24.63;;
47287;SDS011;33020;53.008;13.558;2022-11-15T04:00:15;51.73;;;25.87;;
47287;SDS011;33020;53.008;13.558;2022-11-15T04:02:42;48.17;;;25.90;;
47287;SDS011;33020;53.008;13.558;2022-11-15T04:05:08;46.20;;;25.90;;
47287;SDS011;33020;53.008;13.558;2022-11-15T04:07:35;46.43;;;25.23;;
47287;SDS011;33020;53.008;13.558;2022-11-15T04:10:02;46.97;;;24.63;;
47287;SDS011;33020;53.008;13.558;2022-11-15T04:12:30;47.30;;;25.13;;
47287;SDS011;33020;53.008;13.558;2022-11-15T04:15:07;49.07;;;25.23;;
47287;SDS011;33020;53.008;13.558;2022-11-15T04:17:39;47.63;;;24.83;;
47287;SDS011;33020;53.008;13.558;2022-11-15T04:20:12;45.07;;;23.07;;
47287;SDS011;33020;53.008;13.558;2022-11-15T04:23:01;45.77;;;24.20;;
47287;SDS011;33020;53.008;13.558;2022-11-15T04:25:49;45.60;;;22.40;;
47287;SDS011;33020;53.008;13.558;2022-11-15T04:28:18;44.33;;;24.00;;
47287;SDS011;33020;53.008;13.558;2022-11-15T04:30:45;46.17;;;24.53;;
47287;SDS011;33020;53.008;13.558;2022-11-15T04:33:11;45.70;;;24.73;;
47287;SDS011;33020;53.008;13.558;2022-11-15T04:35:38;43.87;;;22.73;;
47287;SDS011;33020;53.008;13.558;2022-11-15T04:38:06;42.57;;;23.77;;
47287;SDS011;33020;53.008;13.558;2022-11-15T04:40:34;44.07;;;24.03;;
47287;SDS011;33020;53.008;13.558;2022-11-15T04:43:01;46.23;;;23.60;;
47287;SDS011;33020;53.008;13.558;2022-11-15T04:45:29;48.10;;;23.20;;
47287;SDS011;33020;53.008;13.558;2022-11-15T04:47:56;47.73;;;23.27;;
47287;SDS011;33020;53.008;13.558;2022-11-15T04:50:23;46.87;;;22.43;;
47287;SDS011;33020;53.008;13.558;2022-11-15T04:52:50;45.27;;;23.43;;
47287;SDS011;33020;53.008;13.558;2022-11-15T04:55:18;47.20;;;24.23;;
47287;SDS011;33020;53.008;13.558;2022-11-15T04:57:45;44.90;;;24.43;;
47287;SDS011;33020;53.008;13.558;2022-11-15T05:00:13;48.17;;;23.10;;
47287;SDS011;33020;53.008;13.558;2022-11-15T05:02:41;39.67;;;21.20;;
47287;SDS011;33020;53.008;13.558;2022-11-15T05:05:27;43.17;;;22.67;;
47287;SDS011;33020;53.008;13.558;2022-11-15T05:07:53;41.27;;;21.87;;
47287;SDS011;33020;53.008;13.558;2022-11-15T05:10:20;42.27;;;22.43;;
47287;SDS011;33020;53.008;13.558;2022-11-15T05:12:50;42.63;;;22.83;;
47287;SDS011;33020;53.008;13.558;2022-11-15T05:15:55;42.63;;;22.77;;
47287;SDS011;33020;53.008;13.558;2022-11-15T05:18:25;45.60;;;22.67;;
47287;SDS011;33020;53.008;13.558;2022-11-15T05:20:51;46.67;;;22.50;;
47287;SDS011;33020;53.008;13.558;2022-11-15T05:23:18;44.27;;;22.80;;
47287;SDS011;33020;53.008;13.558;2022-11-15T05:25:45;47.90;;;21.60;;
47287;SDS011;33020;53.008;13.558;2022-11-15T05:28:12;44.93;;;23.00;;
47287;SDS011;33020;53.008;13.558;2022-11-15T05:30:39;43.97;;;22.60;;
47287;SDS011;33020;53.008;13.558;2022-11-15T05:33:05;53.30;;;24.37;;
47287;SDS011;33020;53.008;13.558;2022-11-15T05:35:34;41.17;;;21.77;;
47287;SDS011;33020;53.008;13.558;2022-11-15T05:38:04;47.23;;;23.20;;
47287;SDS011;33020;53.008;13.558;2022-11-15T05:40:31;49.07;;;23.80;;
47287;SDS011;33020;53.008;13.558;2022-11-15T05:42:58;46.20;;;23.67;;
47287;SDS011;33020;53.008;13.558;2022-11-15T05:45:26;45.20;;;22.93;;
47287;SDS011;33020;53.008;13.558;2022-11-15T05:47:52;39.10;;;21.70;;
47287;SDS011;33020;53.008;13.558;2022-11-15T05:50:20;43.27;;;21.97;;
47287;SDS011;33020;53.008;13.558;2022-11-15T05:52:47;41.97;;;21.53;;
47287;SDS011;33020;53.008;13.558;2022-11-15T05:55:14;42.37;;;21.03;;
47287;SDS011;33020;53.008;13.558;2022-11-15T05:57:41;42.73;;;22.10;;
47287;SDS011;33020;53.008;13.558;2022-11-15T06:00:08;48.23;;;24.90;;
47287;SDS011;33020;53.008;13.558;2022-11-15T06:02:35;51.77;;;24.67;;
47287;SDS011;33020;53.008;13.558;2022-11-15T06:05:02;51.53;;;24.43;;
47287;SDS011;33020;53.008;13.558;2022-11-15T06:07:29;44.00;;;22.83;;
47287;SDS011;33020;53.008;13.558;2022-11-15T06:09:57;41.97;;;23.57;;
47287;SDS011;33020;53.008;13.558;2022-11-15T06:12:23;48.67;;;24.00;;
47287;SDS011;33020;53.008;13.558;2022-11-15T06:14:50;44.80;;;23.93;;
47287;SDS011;33020;53.008;13.558;2022-11-15T06:17:17;47.70;;;23.27;;
47287;SDS011;33020;53.008;13.558;2022-11-15T06:19:43;43.43;;;20.60;;
47287;SDS011;33020;53.008;13.558;2022-11-15T06:22:10;44.77;;;23.73;;
47287;SDS011;33020;53.008;13.558;2022-11-15T06:24:36;41.23;;;22.03;;
47287;SDS011;33020;53.008;13.558;2022-11-15T06:27:03;39.90;;;20.47;;
47287;SDS011;33020;53.008;13.558;2022-11-15T06:29:30;42.60;;;22.87;;
47287;SDS011;33020;53.008;13.558;2022-11-15T06:31:56;41.23;;;21.00;;
47287;SDS011;33020;53.008;13.558;2022-11-15T06:34:23;43.10;;;22.97;;
47287;SDS011;33020;53.008;13.558;2022-11-15T06:36:50;45.77;;;22.67;;
47287;SDS011;33020;53.008;13.558;2022-11-15T06:39:16;41.27;;;20.70;;
47287;SDS011;33020;53.008;13.558;2022-11-15T06:41:43;43.60;;;21.60;;
47287;SDS011;33020;53.008;13.558;2022-11-15T06:44:10;39.40;;;21.57;;
47287;SDS011;33020;53.008;13.558;2022-11-15T06:46:36;38.87;;;20.77;;
47287;SDS011;33020;53.008;13.558;2022-11-15T06:49:03;37.93;;;20.17;;
47287;SDS011;33020;53.008;13.558;2022-11-15T06:51:35;38.93;;;20.47;;
47287;SDS011;33020;53.008;13.558;2022-11-15T06:54:01;36.60;;;20.67;;
47287;SDS011;33020;53.008;13.558;2022-11-15T06:56:28;41.97;;;21.87;;
47287;SDS011;33020;53.008;13.558;2022-11-15T06:58:55;38.23;;;20.37;;
47287;SDS011;33020;53.008;13.558;2022-11-15T07:01:21;39.03;;;19.63;;
47287;SDS011;33020;53.008;13.558;2022-11-15T07:03:48;37.60;;;20.10;;
47287;SDS011;33020;53.008;13.558;2022-11-15T07:06:15;35.60;;;19.07;;
47287;SDS011;33020;53.008;13.558;2022-11-15T07:08:41;36.53;;;19.63;;
47287;SDS011;33020;53.008;13.558;2022-11-15T07:11:08;36.93;;;20.07;;
47287;SDS011;33020;53.008;13.558;2022-11-15T07:13:35;40.00;;;21.10;;
47287;SDS011;33020;53.008;13.558;2022-11-15T07:16:04;39.70;;;20.63;;
47287;SDS011;33020;53.008;13.558;2022-11-15T07:18:35;35.77;;;20.23;;
47287;SDS011;33020;53.008;13.558;2022-11-15T07:21:03;36.30;;;19.57;;
47287;SDS011;33020;53.008;13.558;2022-11-15T07:23:31;38.37;;;20.17;;
47287;SDS011;33020;53.008;13.558;2022-11-15T07:25:59;32.63;;;18.07;;
47287;SDS011;33020;53.008;13.558;2022-11-15T07:28:26;35.60;;;19.07;;
47287;SDS011;33020;53.008;13.558;2022-11-15T07:30:53;37.23;;;18.83;;
47287;SDS011;33020;53.008;13.558;2022-11-15T07:33:20;37.87;;;19.80;;
47287;SDS011;33020;53.008;13.558;2022-11-15T07:35:47;31.87;;;17.40;;
47287;SDS011;33020;53.008;13.558;2022-11-15T07:38:16;35.43;;;20.13;;
47287;SDS011;33020;53.008;13.558;2022-11-15T07:40:46;36.13;;;19.43;;
47287;SDS011;33020;53.008;13.558;2022-11-15T07:43:13;33.73;;;17.57;;
47287;SDS011;33020;53.008;13.558;2022-11-15T07:45:44;38.53;;;21.30;;
47287;SDS011;33020;53.008;13.558;2022-11-15T07:48:11;35.30;;;20.43;;
47287;SDS011;33020;53.008;13.558;2022-11-15T07:50:41;37.50;;;19.13;;
47287;SDS011;33020;53.008;13.558;2022-11-15T07:53:11;35.77;;;19.70;;
47287;SDS011;33020;53.008;13.558;2022-11-15T07:55:39;37.00;;;19.40;;
47287;SDS011;33020;53.008;13.558;2022-11-15T07:58:07;32.43;;;17.33;;
47287;SDS011;33020;53.008;13.558;2022-11-15T08:00:35;33.93;;;18.23;;
47287;SDS011;33020;53.008;13.558;2022-11-15T08:03:03;36.37;;;20.03;;
47287;SDS011;33020;53.008;13.558;2022-11-15T08:05:37;35.10;;;18.67;;
47287;SDS011;33020;53.008;13.558;2022-11-15T08:08:05;38.10;;;20.00;;
47287;SDS011;33020;53.008;13.558;2022-11-15T08:10:32;36.03;;;19.50;;
47287;SDS011;33020;53.008;13.558;2022-11-15T08:13:07;36.58;;;19.23;;
47287;SDS011;33020;53.008;13.558;2022-11-15T08:15:35;36.73;;;19.67;;
47287;SDS011;33020;53.008;13.558;2022-11-15T08:18:05;37.13;;;19.70;;
47287;SDS011;33020;53.008;13.558;2022-11-15T08:20:32;30.87;;;16.83;;
47287;SDS011;33020;53.008;13.558;2022-11-15T08:23:01;33.97;;;17.60;;
47287;SDS011;33020;53.008;13.558;2022-11-15T08:25:30;36.43;;;19.87;;
47287;SDS011;33020;53.008;13.558;2022-11-15T08:27:58;33.70;;;18.70;;
47287;SDS011;33020;53.008;13.558;2022-11-15T08:30:27;36.40;;;18.90;;
47287;SDS011;33020;53.008;13.558;2022-11-15T08:32:55;36.10;;;18.87;;
47287;SDS011;33020;53.008;13.558;2022-11-15T08:35:22;33.10;;;18.23;;
47287;SDS011;33020;53.008;13.558;2022-11-15T08:37:54;38.87;;;20.37;;
47287;SDS011;33020;53.008;13.558;2022-11-15T08:40:21;35.50;;;20.13;;
47287;SDS011;33020;53.008;13.558;2022-11-15T08:42:49;35.70;;;19.87;;
47287;SDS011;33020;53.008;13.558;2022-11-15T08:45:16;35.57;;;19.80;;
47287;SDS011;33020;53.008;13.558;2022-11-15T08:47:42;36.07;;;20.50;;
47287;SDS011;33020;53.008;13.558;2022-11-15T08:50:09;35.63;;;19.30;;
47287;SDS011;33020;53.008;13.558;2022-11-15T08:52:36;38.27;;;20.20;;
47287;SDS011;33020;53.008;13.558;2022-11-15T08:55:02;38.70;;;21.23;;
47287;SDS011;33020;53.008;13.558;2022-11-15T08:57:29;36.73;;;20.47;;
47287;SDS011;33020;53.008;13.558;2022-11-15T08:59:59;36.70;;;19.50;;
47287;SDS011;33020;53.008;13.558;2022-11-15T09:02:25;34.63;;;19.83;;
47287;SDS011;33020;53.008;13.558;2022-11-15T09:04:52;43.17;;;22.50;;
47287;SDS011;33020;53.008;13.558;2022-11-15T09:07:18;36.10;;;21.00;;
47287;SDS011;33020;53.008;13.558;2022-11-15T09:09:45;33.70;;;18.00;;
47287;SDS011;33020;53.008;13.558;2022-11-15T09:12:12;30.97;;;19.03;;
47287;SDS011;33020;53.008;13.558;2022-11-15T09:14:39;40.47;;;21.57;;
47287;SDS011;33020;53.008;13.558;2022-11-15T09:17:07;36.93;;;20.33;;
47287;SDS011;33020;53.008;13.558;2022-11-15T09:19:34;34.00;;;19.23;;
47287;SDS011;33020;53.008;13.558;2022-11-15T09:22:01;30.97;;;18.33;;
47287;SDS011;33020;53.008;13.558;2022-11-15T09:24:28;35.80;;;21.13;;
47287;SDS011;33020;53.008;13.558;2022-11-15T09:26:54;40.27;;;21.23;;
47287;SDS011;33020;53.008;13.558;2022-11-15T09:29:21;39.70;;;21.90;;
47287;SDS011;33020;53.008;13.558;2022-11-15T09:31:47;38.40;;;21.63;;
47287;SDS011;33020;53.008;13.558;2022-11-15T09:34:14;40.20;;;22.57;;
47287;SDS011;33020;53.008;13.558;2022-11-15T09:36:41;35.43;;;20.13;;
47287;SDS011;33020;53.008;13.558;2022-11-15T09:39:08;38.67;;;20.70;;
47287;SDS011;33020;53.008;13.558;2022-11-15T09:44:28;35.40;;;19.77;;
47287;SDS011;33020;53.008;13.558;2022-11-15T09:50:07;38.30;;;20.47;;
47287;SDS011;33020;53.008;13.558;2022-11-15T09:52:36;36.03;;;22.10;;
47287;SDS011;33020;53.008;13.558;2022-11-15T09:55:03;31.70;;;19.13;;
47287;SDS011;33020;53.008;13.558;2022-11-15T10:03:15;37.97;;;20.77;;
47287;SDS011;33020;53.008;13.558;2022-11-15T10:05:44;34.07;;;20.50;;
47287;SDS011;33020;53.008;13.558;2022-11-15T10:08:16;38.40;;;20.33;;
47287;SDS011;33020;53.008;13.558;2022-11-15T10:11:08;36.20;;;20.73;;
47287;SDS011;33020;53.008;13.558;2022-11-15T10:13:57;37.07;;;20.30;;
47287;SDS011;33020;53.008;13.558;2022-11-15T10:19:20;31.43;;;19.53;;
47287;SDS011;33020;53.008;13.558;2022-11-15T10:24:26;28.87;;;18.23;;
47287;SDS011;33020;53.008;13.558;2022-11-15T10:26:57;29.03;;;17.30;;
47287;SDS011;33020;53.008;13.558;2022-11-15T10:29:24;31.47;;;19.13;;
47287;SDS011;33020;53.008;13.558;2022-11-15T10:31:52;29.17;;;17.63;;
47287;SDS011;33020;53.008;13.558;2022-11-15T10:34:20;31.93;;;18.17;;
47287;SDS011;33020;53.008;13.558;2022-11-15T10:39:22;25.13;;;16.85;;
47287;SDS011;33020;53.008;13.558;2022-11-15T10:41:49;26.02;;;15.10;;
47287;SDS011;33020;53.008;13.558;2022-11-15T10:46:44;21.98;;;14.18;;
47287;SDS011;33020;53.008;13.558;2022-11-15T10:49:15;26.33;;;16.02;;
47287;SDS011;33020;53.008;13.558;2022-11-15T10:51:48;21.65;;;15.00;;
47287;SDS011;33020;53.008;13.558;2022-11-15T10:57:26;22.27;;;15.35;;
47287;SDS011;33020;53.008;13.558;2022-11-15T11:00:03;24.83;;;15.05;;
47287;SDS011;33020;53.008;13.558;2022-11-15T11:05:34;21.02;;;13.60;;
47287;SDS011;33020;53.008;13.558;2022-11-15T11:10:53;21.77;;;13.60;;
47287;SDS011;33020;53.008;13.558;2022-11-15T11:21:49;20.73;;;13.40;;
47287;SDS011;33020;53.008;13.558;2022-11-15T11:24:32;19.40;;;13.20;;
47287;SDS011;33020;53.008;13.558;2022-11-15T11:35:22;20.73;;;13.77;;
47287;SDS011;33020;53.008;13.558;2022-11-15T11:38:06;16.98;;;11.57;;
47287;SDS011;33020;53.008;13.558;2022-11-15T11:40:59;20.35;;;13.07;;
47287;SDS011;33020;53.008;13.558;2022-11-15T11:44:03;18.10;;;11.23;;
47287;SDS011;33020;53.008;13.558;2022-11-15T11:51:56;18.23;;;12.60;;
47287;SDS011;33020;53.008;13.558;2022-11-15T11:57:29;14.47;;;10.93;;
47287;SDS011;33020;53.008;13.558;2022-11-15T12:00:01;16.40;;;11.95;;
47287;SDS011;33020;53.008;13.558;2022-11-15T12:02:35;16.15;;;11.27;;
47287;SDS011;33020;53.008;13.558;2022-11-15T12:05:13;19.17;;;12.07;;
47287;SDS011;33020;53.008;13.558;2022-11-15T12:07:44;15.55;;;11.30;;
47287;SDS011;33020;53.008;13.558;2022-11-15T12:12:52;17.08;;;12.00;;
47287;SDS011;33020;53.008;13.558;2022-11-15T12:15:24;14.93;;;11.25;;
47287;SDS011;33020;53.008;13.558;2022-11-15T12:17:54;15.02;;;10.77;;
47287;SDS011;33020;53.008;13.558;2022-11-15T12:20:25;17.75;;;11.93;;
47287;SDS011;33020;53.008;13.558;2022-11-15T12:22:58;18.45;;;12.95;;
47287;SDS011;33020;53.008;13.558;2022-11-15T12:25:31;16.00;;;11.47;;
47287;SDS011;33020;53.008;13.558;2022-11-15T12:28:14;15.43;;;12.13;;
47287;SDS011;33020;53.008;13.558;2022-11-15T12:33:31;14.45;;;10.85;;
47287;SDS011;33020;53.008;13.558;2022-11-15T12:36:04;16.27;;;12.55;;
47287;SDS011;33020;53.008;13.558;2022-11-15T12:41:24;17.10;;;12.55;;
47287;SDS011;33020;53.008;13.558;2022-11-15T12:44:01;17.83;;;13.18;;
47287;SDS011;33020;53.008;13.558;2022-11-15T12:59:47;17.38;;;12.73;;
47287;SDS011;33020;53.008;13.558;2022-11-15T13:02:25;19.95;;;13.68;;
47287;SDS011;33020;53.008;13.558;2022-11-15T13:04:54;19.40;;;12.90;;
47287;SDS011;33020;53.008;13.558;2022-11-15T13:17:50;16.77;;;11.88;;
47287;SDS011;33020;53.008;13.558;2022-11-15T13:20:31;17.70;;;12.35;;
47287;SDS011;33020;53.008;13.558;2022-11-15T13:23:16;21.88;;;14.15;;
47287;SDS011;33020;53.008;13.558;2022-11-15T13:28:35;19.25;;;13.10;;
47287;SDS011;33020;53.008;13.558;2022-11-15T13:31:21;20.30;;;14.02;;
47287;SDS011;33020;53.008;13.558;2022-11-15T13:33:56;20.13;;;14.23;;
47287;SDS011;33020;53.008;13.558;2022-11-15T13:36:27;17.42;;;11.50;;
47287;SDS011;33020;53.008;13.558;2022-11-15T13:41:44;20.90;;;14.68;;
47287;SDS011;33020;53.008;13.558;2022-11-15T13:44:19;19.77;;;13.32;;
47287;SDS011;33020;53.008;13.558;2022-11-15T13:47:00;21.50;;;14.02;;
47287;SDS011;33020;53.008;13.558;2022-11-15T13:49:30;24.10;;;15.60;;
47287;SDS011;33020;53.008;13.558;2022-11-15T13:51:58;22.63;;;14.25;;
47287;SDS011;33020;53.008;13.558;2022-11-15T13:56:53;22.70;;;14.65;;
47287;SDS011;33020;53.008;13.558;2022-11-15T13:59:26;21.27;;;15.32;;
47287;SDS011;33020;53.008;13.558;2022-11-15T14:01:55;20.33;;;14.07;;
47287;SDS011;33020;53.008;13.558;2022-11-15T14:04:23;19.63;;;14.18;;
47287;SDS011;33020;53.008;13.558;2022-11-15T14:06:53;22.52;;;15.60;;
47287;SDS011;33020;53.008;13.558;2022-11-15T14:09:29;24.27;;;15.25;;
47287;SDS011;33020;53.008;13.558;2022-11-15T14:12:00;24.50;;;15.70;;
47287;SDS011;33020;53.008;13.558;2022-11-15T14:14:29;20.98;;;14.15;;
47287;SDS011;33020;53.008;13.558;2022-11-15T14:16:59;25.63;;;16.23;;
47287;SDS011;33020;53.008;13.558;2022-11-15T14:24:40;26.45;;;17.33;;
47287;SDS011;33020;53.008;13.558;2022-11-15T14:27:21;30.02;;;21.73;;
47287;SDS011;33020;53.008;13.558;2022-11-15T14:29:52;23.73;;;16.23;;
47287;SDS011;33020;53.008;13.558;2022-11-15T14:32:20;24.88;;;17.42;;
47287;SDS011;33020;53.008;13.558;2022-11-15T14:34:56;25.27;;;16.07;;
47287;SDS011;33020;53.008;13.558;2022-11-15T14:37:28;22.13;;;15.87;;
47287;SDS011;33020;53.008;13.558;2022-11-15T14:39:59;24.57;;;15.53;;
47287;SDS011;33020;53.008;13.558;2022-11-15T14:42:26;27.90;;;16.77;;
47287;SDS011;33020;53.008;13.558;2022-11-15T14:44:52;26.20;;;17.23;;
47287;SDS011;33020;53.008;13.558;2022-11-15T14:47:19;29.90;;;19.73;;
47287;SDS011;33020;53.008;13.558;2022-11-15T14:49:46;28.43;;;17.90;;
47287;SDS011;33020;53.008;13.558;2022-11-15T14:52:30;26.88;;;16.45;;
47287;SDS011;33020;53.008;13.558;2022-11-15T14:55:01;32.10;;;18.73;;
47287;SDS011;33020;53.008;13.558;2022-11-15T14:57:29;33.50;;;20.50;;
47287;SDS011;33020;53.008;13.558;2022-11-15T14:59:56;32.00;;;19.73;;
47287;SDS011;33020;53.008;13.558;2022-11-15T15:02:24;33.07;;;19.50;;
47287;SDS011;33020;53.008;13.558;2022-11-15T15:04:51;36.60;;;19.97;;
47287;SDS011;33020;53.008;13.558;2022-11-15T15:07:18;34.50;;;19.20;;
47287;SDS011;33020;53.008;13.558;2022-11-15T15:09:45;33.33;;;19.43;;
47287;SDS011;33020;53.008;13.558;2022-11-15T15:14:44;33.67;;;19.87;;
47287;SDS011;33020;53.008;13.558;2022-11-15T15:17:11;36.93;;;21.70;;
47287;SDS011;33020;53.008;13.558;2022-11-15T15:19:38;34.90;;;21.13;;
47287;SDS011;33020;53.008;13.558;2022-11-15T15:22:05;39.90;;;22.13;;
47287;SDS011;33020;53.008;13.558;2022-11-15T15:24:32;35.37;;;22.20;;
47287;SDS011;33020;53.008;13.558;2022-11-15T15:26:59;40.27;;;22.13;;
47287;SDS011;33020;53.008;13.558;2022-11-15T15:29:35;36.93;;;20.70;;
47287;SDS011;33020;53.008;13.558;2022-11-15T15:32:02;35.87;;;20.23;;
47287;SDS011;33020;53.008;13.558;2022-11-15T15:34:29;43.03;;;22.20;;
47287;SDS011;33020;53.008;13.558;2022-11-15T15:37:18;40.17;;;21.30;;
47287;SDS011;33020;53.008;13.558;2022-11-15T15:39:54;39.90;;;20.93;;
47287;SDS011;33020;53.008;13.558;2022-11-15T15:42:22;38.03;;;19.67;;
47287;SDS011;33020;53.008;13.558;2022-11-15T15:44:49;34.77;;;21.33;;
47287;SDS011;33020;53.008;13.558;2022-11-15T15:47:20;34.00;;;19.50;;
47287;SDS011;33020;53.008;13.558;2022-11-15T15:49:48;32.83;;;19.07;;
47287;SDS011;33020;53.008;13.558;2022-11-15T15:52:15;36.60;;;19.87;;
47287;SDS011;33020;53.008;13.558;2022-11-15T15:54:42;37.27;;;19.03;;
47287;SDS011;33020;53.008;13.558;2022-11-15T15:57:11;36.57;;;20.30;;
47287;SDS011;33020;53.008;13.558;2022-11-15T15:59:38;37.47;;;21.40;;
47287;SDS011;33020;53.008;13.558;2022-11-15T16:02:05;40.03;;;21.67;;
47287;SDS011;33020;53.008;13.558;2022-11-15T16:04:32;38.27;;;20.37;;
47287;SDS011;33020;53.008;13.558;2022-11-15T16:06:59;36.40;;;20.90;;
47287;SDS011;33020;53.008;13.558;2022-11-15T16:09:26;38.80;;;21.10;;
47287;SDS011;33020;53.008;13.558;2022-11-15T16:12:11;39.80;;;21.87;;
47287;SDS011;33020;53.008;13.558;2022-11-15T16:14:38;35.07;;;20.40;;
47287;SDS011;33020;53.008;13.558;2022-11-15T16:17:05;39.50;;;21.70;;
47287;SDS011;33020;53.008;13.558;2022-11-15T16:19:32;36.93;;;21.53;;
47287;SDS011;33020;53.008;13.558;2022-11-15T16:21:58;33.83;;;19.27;;
47287;SDS011;33020;53.008;13.558;2022-11-15T16:24:28;35.93;;;19.77;;
47287;SDS011;33020;53.008;13.558;2022-11-15T16:26:55;40.20;;;22.37;;
47287;SDS011;33020;53.008;13.558;2022-11-15T16:29:21;38.87;;;21.10;;
47287;SDS011;33020;53.008;13.558;2022-11-15T16:31:49;43.20;;;23.53;;
47287;SDS011;33020;53.008;13.558;2022-11-15T16:34:16;41.23;;;21.87;;
47287;SDS011;33020;53.008;13.558;2022-11-15T16:36:43;39.17;;;20.60;;